Terminal Aerodrome Forecast
Issued by NWS Denver/Boulder, CO

Home | Current Version | Previous Version | Text Only | Print | Product List | Glossary On
Versions: 1 2 3 4 5 6 7 8 9 10 11 12 13 14 15 16 17 18 19 20 21 22 23 24 25 26 27 28 29 30 31 32 33 34 35 36 37 38 39 40 41 42 43 44 45 46 47 48 49 50
000
FTUS45 KBOU 262103 AAB
TAFDEN
TAF AMD
KDEN 262103Z 2621/2724 08014G24KT P6SM -RA BKN010 OVC020
      TEMPO 2621/2624 5SM -RA BR OVC006
     FM270000 09010G18KT 3SM -RA BR SCT006 OVC010
     FM270200 08010KT 3SM -RA BR SCT005 OVC010
     FM270600 05010KT 1SM -RA BR SCT002 OVC006
     FM271500 04009KT 3SM -SHRA BR SCT005 OVC010
     FM271900 03009KT 5SM -SHRA BR SCT010 BKN025 OVC050=

USA.gov is the U.S. government's official web portal to all federal, state and local government web resources and services.